Terminal Aerodrome Forecast
Issued by NWS

Home | Current Version | Previous Version | Text Only | Print | Product List | Glossary On
Versions: 1 2 3 4 5 6 7 8 9 10 11 12 13 14 15 16 17 18 19 20 21 22 23 24
000
FTUS44 KJAN 250709 AAA
TAFHKS
TAF AMD
KHKS 250709Z 2507/2606 20004KT P6SM SCT005 BKN060
     FM251200 19005KT P6SM VCTS BKN010 BKN030CB OVC050
     FM251500 27006KT 5SM SHRA VCTS BKN015 OVC030CB
     FM251900 26006KT P6SM SCT025 BKN050
     FM260100 23003KT P6SM BKN250=

USA.gov is the U.S. government's official web portal to all federal, state and local government web resources and services.